Time;durP1;ratioP1;P1;durP2;ratioP2;P2;SDS_P1;SDS_P2;PMS_P1;PMS_P2;Temp;Humidity;BMP_temperature;BMP_pressure;BME280_temperature;BME280_humidity;BME280_pressure;Samples;Min_cycle;Max_cycle;Signal;HPM_P1;HPM_P2
2022/02/17 00:00:35;;;;;;;4.73;4.30;;;;;21.70;98162.00;;;;2077843;28;20217;-48
2022/02/17 00:01:35;;;;;;;5.82;4.68;;;;;21.70;98177.00;;;;2078183;28;20264;-47
2022/02/17 00:02:36;;;;;;;5.57;4.70;;;;;21.70;98150.00;;;;2078835;28;20339;-47
2022/02/17 00:03:37;;;;;;;7.00;4.90;;;;;21.70;98145.00;;;;2078602;28;20577;-46
2022/02/17 00:04:37;;;;;;;6.83;4.43;;;;;21.60;98165.00;;;;2076963;28;20229;-48
2022/02/17 00:05:38;;;;;;;4.90;4.13;;;;;21.60;98163.00;;;;2078562;28;20468;-45
2022/02/17 00:06:38;;;;;;;5.60;4.00;;;;;21.70;98161.00;;;;2077591;28;20244;-47
2022/02/17 00:07:38;;;;;;;5.47;4.10;;;;;21.70;98155.00;;;;2077752;28;20236;-46
2022/02/17 00:08:39;;;;;;;4.17;3.77;;;;;21.70;98145.00;;;;2078553;28;20217;-48
2022/02/17 00:09:39;;;;;;;4.00;3.60;;;;;21.70;98163.00;;;;2081579;28;20244;-46
2022/02/17 00:10:40;;;;;;;5.50;3.67;;;;;21.70;98143.00;;;;2086124;28;20711;-46
2022/02/17 00:11:41;;;;;;;4.63;3.40;;;;;21.70;98153.00;;;;2086827;28;20602;-45
2022/02/17 00:12:42;;;;;;;4.65;3.60;;;;;21.60;98153.00;;;;2085564;28;20219;-46
2022/02/17 00:13:42;;;;;;;5.37;4.60;;;;;21.60;98146.00;;;;2086841;28;20212;-46
2022/02/17 00:14:42;;;;;;;5.33;3.67;;;;;21.60;98160.00;;;;2086540;28;20243;-46
2022/02/17 00:15:43;;;;;;;5.07;3.80;;;;;21.60;98156.00;;;;2087226;28;20212;-45
2022/02/17 00:16:43;;;;;;;4.73;3.83;;;;;21.60;98150.00;;;;2086357;28;20271;-45
2022/02/17 00:17:43;;;;;;;3.50;3.20;;;;;21.60;98145.00;;;;2087079;28;20304;-48
2022/02/17 00:18:44;;;;;;;4.03;3.20;;;;;21.60;98129.00;;;;2086839;28;20205;-46
2022/02/17 00:19:44;;;;;;;5.47;3.40;;;;;21.60;98166.00;;;;2082373;28;20221;-46
2022/02/17 00:20:44;;;;;;;3.60;3.10;;;;;21.60;98102.00;;;;2077097;28;20249;-46
2022/02/17 00:21:45;;;;;;;3.70;2.90;;;;;21.60;98128.00;;;;2078585;28;20217;-46
2022/02/17 00:22:45;;;;;;;4.03;3.23;;;;;21.60;98099.00;;;;2077090;28;20299;-48
2022/02/17 00:23:46;;;;;;;4.23;2.80;;;;;21.60;98110.00;;;;2078967;28;20213;-47
2022/02/17 00:24:46;;;;;;;5.00;3.40;;;;;21.60;98112.00;;;;2078972;28;20269;-47
2022/02/17 00:25:46;;;;;;;3.23;2.43;;;;;21.60;98109.00;;;;2078522;28;20709;-47
2022/02/17 00:26:47;;;;;;;3.93;2.60;;;;;21.60;98081.00;;;;2078060;28;20222;-47
2022/02/17 00:27:47;;;;;;;3.47;2.90;;;;;21.60;98105.00;;;;2074053;28;20224;-48
2022/02/17 00:28:48;;;;;;;3.53;2.73;;;;;21.60;98081.00;;;;2086514;28;20216;-46
2022/02/17 00:29:48;;;;;;;4.50;3.00;;;;;21.60;98097.00;;;;2081140;28;20272;-47
2022/02/17 00:30:49;;;;;;;3.80;2.70;;;;;21.60;98099.00;;;;2077527;28;20465;-47
2022/02/17 00:31:49;;;;;;;4.63;3.00;;;;;21.60;98087.00;;;;2077085;28;20218;-47
2022/02/17 00:32:49;;;;;;;5.00;3.00;;;;;21.50;98087.00;;;;2077982;28;20237;-47
2022/02/17 00:33:50;;;;;;;3.40;3.03;;;;;21.50;98089.00;;;;2084316;28;20689;-47
2022/02/17 00:34:51;;;;;;;7.73;3.50;;;;;21.60;98064.00;;;;2083925;28;20743;-48
2022/02/17 00:35:51;;;;;;;4.50;3.15;;;;;21.60;98084.00;;;;2078915;28;20304;-48
2022/02/17 00:36:51;;;;;;;8.20;3.70;;;;;21.60;98084.00;;;;2075333;28;20213;-48
2022/02/17 00:37:53;;;;;;;7.07;3.43;;;;;21.60;98072.00;;;;2079242;28;20213;-48
2022/02/17 00:38:53;;;;;;;4.03;3.17;;;;;21.60;98103.00;;;;2078872;28;20280;-47
2022/02/17 00:39:53;;;;;;;5.47;3.10;;;;;21.60;98098.00;;;;2079238;28;20616;-46
2022/02/17 00:40:54;;;;;;;6.33;2.40;;;;;21.60;98107.00;;;;2078269;28;20328;-47
2022/02/17 00:41:54;;;;;;;3.73;2.90;;;;;21.60;98088.00;;;;2078925;28;20217;-47
2022/02/17 00:42:55;;;;;;;2.80;2.43;;;;;21.60;98091.00;;;;2079155;28;20213;-48
2022/02/17 00:43:55;;;;;;;4.60;3.00;;;;;21.60;98113.00;;;;2086056;28;20212;-47
2022/02/17 00:44:56;;;;;;;3.47;2.30;;;;;21.60;98098.00;;;;2074593;28;20817;-47
2022/02/17 00:45:56;;;;;;;4.50;2.80;;;;;21.60;98091.00;;;;2081068;28;20225;-47
2022/02/17 00:46:57;;;;;;;4.40;2.33;;;;;21.60;98100.00;;;;2084191;28;20219;-47
2022/02/17 00:47:57;;;;;;;4.77;2.20;;;;;21.60;98104.00;;;;2078319;28;20245;-47
2022/02/17 00:48:57;;;;;;;3.90;2.57;;;;;21.60;98110.00;;;;2077776;28;20697;-48
2022/02/17 00:49:58;;;;;;;3.07;2.70;;;;;21.60;98125.00;;;;2078294;28;20213;-46
2022/02/17 00:50:58;;;;;;;3.20;2.20;;;;;21.60;98108.00;;;;2079702;28;20218;-47
2022/02/17 00:51:58;;;;;;;3.50;2.17;;;;;21.50;98141.00;;;;2086931;28;20228;-47
2022/02/17 00:52:59;;;;;;;3.47;2.10;;;;;21.50;98118.00;;;;2087201;28;20213;-48
2022/02/17 00:53:59;;;;;;;3.97;2.53;;;;;21.60;98135.00;;;;2087217;28;20209;-48
2022/02/17 00:55:00;;;;;;;3.73;2.27;;;;;21.60;98127.00;;;;2087185;28;20209;-48
2022/02/17 00:56:00;;;;;;;4.47;1.90;;;;;21.50;98121.00;;;;2087224;28;20575;-48
2022/02/17 00:57:00;;;;;;;4.30;1.87;;;;;21.50;98128.00;;;;2087283;28;20216;-47
2022/02/17 00:58:01;;;;;;;6.10;2.60;;;;;21.60;98114.00;;;;2084858;28;20266;-48
2022/02/17 00:59:01;;;;;;;3.10;1.67;;;;;21.50;98116.00;;;;2085826;28;20241;-46
2022/02/17 01:00:03;;;;;;;4.10;2.27;;;;;21.60;98111.00;;;;2076799;28;20264;-48
2022/02/17 01:01:03;;;;;;;4.15;2.10;;;;;21.50;98124.00;;;;2093865;28;20248;-47
2022/02/17 01:02:04;;;;;;;2.90;1.90;;;;;21.50;98100.00;;;;2088682;28;20228;-48
2022/02/17 01:03:04;;;;;;;3.20;2.30;;;;;21.50;98116.00;;;;2087094;28;20220;-48
2022/02/17 01:04:04;;;;;;;3.60;1.83;;;;;21.50;98110.00;;;;2086990;28;20235;-48
2022/02/17 01:05:05;;;;;;;3.63;2.13;;;;;21.50;98117.00;;;;2086599;28;20267;-47
2022/02/17 01:06:05;;;;;;;2.40;1.63;;;;;21.50;98102.00;;;;2086969;28;20293;-48
2022/02/17 01:07:06;;;;;;;3.17;2.03;;;;;21.50;98112.00;;;;2086891;28;20217;-48
2022/02/17 01:08:06;;;;;;;3.57;1.40;;;;;21.50;98101.00;;;;2087206;28;20221;-48
2022/02/17 01:09:07;;;;;;;3.33;2.10;;;;;21.50;98111.00;;;;2079555;28;20244;-48
2022/02/17 01:10:10;;;;;;;2.08;1.50;;;;;21.50;98100.00;;;;2077970;28;20367;-48
2022/02/17 01:11:10;;;;;;;1.60;1.45;;;;;21.50;98110.00;;;;2077287;28;20355;-48
2022/02/17 01:12:10;;;;;;;3.30;1.83;;;;;21.50;98119.00;;;;2077978;28;20283;-49
2022/02/17 01:13:11;;;;;;;2.97;1.83;;;;;21.50;98100.00;;;;2078294;28;20213;-48
2022/02/17 01:14:11;;;;;;;3.23;1.60;;;;;21.50;98132.00;;;;2078098;28;21035;-48
2022/02/17 01:15:11;;;;;;;1.77;0.90;;;;;21.50;98120.00;;;;2078100;28;20217;-47
2022/02/17 01:16:12;;;;;;;2.60;1.67;;;;;21.50;98114.00;;;;2077861;28;20222;-49
2022/02/17 01:17:12;;;;;;;3.07;1.63;;;;;21.50;98112.00;;;;2077199;28;20261;-48
2022/02/17 01:18:13;;;;;;;2.20;1.40;;;;;21.50;98119.00;;;;2077664;28;20220;-49
2022/02/17 01:19:13;;;;;;;3.80;1.10;;;;;21.50;98109.00;;;;2077920;28;20224;-48
2022/02/17 01:20:14;;;;;;;3.50;1.70;;;;;21.50;98106.00;;;;2078411;28;20739;-47
2022/02/17 01:21:15;;;;;;;2.23;1.30;;;;;21.50;98109.00;;;;2076827;28;20315;-46
2022/02/17 01:22:15;;;;;;;1.73;1.23;;;;;21.50;98105.00;;;;2075863;28;20278;-48
2022/02/17 01:23:16;;;;;;;2.80;1.50;;;;;21.50;98084.00;;;;2079066;28;20214;-48
2022/02/17 01:24:16;;;;;;;2.63;1.20;;;;;21.50;98104.00;;;;2086445;28;20737;-48
2022/02/17 01:25:16;;;;;;;3.00;1.53;;;;;21.50;98092.00;;;;2085282;28;20221;-47
2022/02/17 01:26:17;;;;;;;3.07;1.57;;;;;21.40;98105.00;;;;2086046;28;20787;-48
2022/02/17 01:27:17;;;;;;;3.80;1.70;;;;;21.50;98113.00;;;;2086754;28;20235;-48
2022/02/17 01:28:18;;;;;;;2.90;1.30;;;;;21.50;98112.00;;;;2086292;28;20219;-48
2022/02/17 01:29:19;;;;;;;2.13;1.13;;;;;21.40;98082.00;;;;2086349;28;20217;-49
2022/02/17 01:30:19;;;;;;;2.27;1.40;;;;;21.50;98121.00;;;;2085017;28;20885;-48
2022/02/17 01:31:20;;;;;;;1.70;1.40;;;;;21.50;98116.00;;;;2085626;28;20223;-47
2022/02/17 01:32:21;;;;;;;1.53;1.03;;;;;21.50;98118.00;;;;2086314;28;20497;-48
2022/02/17 01:33:21;;;;;;;2.37;1.50;;;;;21.50;98095.00;;;;2086902;28;20698;-47
2022/02/17 01:34:21;;;;;;;3.13;1.40;;;;;21.50;98107.00;;;;2086540;28;20208;-48
2022/02/17 01:35:22;;;;;;;2.03;1.33;;;;;21.40;98119.00;;;;2085855;28;20225;-47
2022/02/17 01:36:22;;;;;;;2.33;1.73;;;;;21.40;98119.00;;;;2079714;28;20682;-47
2022/02/17 01:37:23;;;;;;;1.60;1.30;;;;;21.40;98116.00;;;;2078608;28;20292;-48
2022/02/17 01:38:23;;;;;;;1.67;1.30;;;;;21.40;98092.00;;;;2078924;28;20247;-46
2022/02/17 01:39:24;;;;;;;3.50;1.30;;;;;21.50;98092.00;;;;2078697;28;20878;-49
2022/02/17 01:40:24;;;;;;;3.67;1.80;;;;;21.40;98163.00;;;;2077903;28;20588;-50
2022/02/17 01:41:25;;;;;;;2.20;1.20;;;;;21.40;98138.00;;;;2078558;28;20345;-48
2022/02/17 01:42:25;;;;;;;2.50;1.33;;;;;21.40;98146.00;;;;2078434;28;20209;-47
2022/02/17 01:43:26;;;;;;;2.93;1.53;;;;;21.40;98151.00;;;;2082393;28;20208;-47
2022/02/17 01:44:26;;;;;;;2.67;1.47;;;;;21.40;98166.00;;;;2085672;28;20209;-48
2022/02/17 01:45:26;;;;;;;1.93;1.20;;;;;21.40;98157.00;;;;2084979;28;20216;-49
2022/02/17 01:46:40;;;;;;;2.93;1.30;;;;;21.40;98163.00;;;;2086519;28;20592;-48
2022/02/17 01:47:44;;;;;;;3.22;1.60;;;;;21.40;98160.00;;;;2086951;28;20700;-48
2022/02/17 01:48:45;;;;;;;2.95;1.40;;;;;21.40;98152.00;;;;2086755;28;20220;-48
2022/02/17 01:49:48;;;;;;;2.37;1.30;;;;;21.40;98159.00;;;;2086861;28;20651;-48
2022/02/17 01:50:48;;;;;;;2.28;1.23;;;;;21.40;98165.00;;;;2085439;28;20224;-49
2022/02/17 01:51:49;;;;;;;2.10;1.23;;;;;21.40;98175.00;;;;2086488;28;20213;-48
2022/02/17 01:52:49;;;;;;;2.37;1.40;;;;;21.40;98142.00;;;;2083915;28;20222;-47
2022/02/17 01:53:50;;;;;;;2.80;1.70;;;;;21.40;98157.00;;;;2086422;28;20217;-46
2022/02/17 01:54:50;;;;;;;2.57;1.27;;;;;21.40;98179.00;;;;2085193;28;20205;-47
2022/02/17 01:55:53;;;;;;;2.20;1.00;;;;;21.40;98179.00;;;;2077924;28;20341;-49
2022/02/17 01:56:53;;;;;;;1.70;1.30;;;;;21.40;98170.00;;;;2077450;28;20308;-48
2022/02/17 01:57:54;;;;;;;2.60;1.30;;;;;21.40;98177.00;;;;2077753;28;20214;-46
2022/02/17 01:58:54;;;;;;;3.23;1.40;;;;;21.40;98178.00;;;;2077944;28;20217;-47
2022/02/17 01:59:55;;;;;;;2.90;1.30;;;;;21.40;98201.00;;;;2077853;28;20307;-47
2022/02/17 02:00:55;;;;;;;2.37;1.53;;;;;21.40;98211.00;;;;2077150;28;20236;-48
2022/02/17 02:01:56;;;;;;;2.77;1.13;;;;;21.40;98203.00;;;;2078315;28;20309;-47
2022/02/17 02:02:56;;;;;;;1.90;1.03;;;;;21.40;98209.00;;;;2078621;28;20225;-46
2022/02/17 02:03:56;;;;;;;2.80;1.30;;;;;21.40;98193.00;;;;2078469;28;20286;-47
2022/02/17 02:04:57;;;;;;;2.73;1.30;;;;;21.40;98205.00;;;;2078486;28;20717;-47
2022/02/17 02:05:58;;;;;;;3.27;1.43;;;;;21.40;98210.00;;;;2078735;28;20232;-47
2022/02/17 02:06:58;;;;;;;2.40;1.27;;;;;21.40;98218.00;;;;2078389;28;20297;-47
2022/02/17 02:07:58;;;;;;;1.97;1.30;;;;;21.40;98218.00;;;;2078590;28;20221;-47
2022/02/17 02:09:00;;;;;;;3.97;1.53;;;;;21.40;98226.00;;;;2077809;28;20213;-48
2022/02/17 02:10:00;;;;;;;4.65;1.63;;;;;21.40;98206.00;;;;2077894;28;20218;-47
2022/02/17 02:11:00;;;;;;;2.40;1.47;;;;;21.40;98206.00;;;;2077525;28;20220;-47
2022/02/17 02:12:01;;;;;;;2.37;1.47;;;;;21.40;98205.00;;;;2078345;28;20938;-47
2022/02/17 02:13:02;;;;;;;2.10;1.10;;;;;21.40;98200.00;;;;2084408;28;20972;-48
2022/02/17 02:14:02;;;;;;;2.30;1.40;;;;;21.40;98219.00;;;;2085815;28;20983;-48
2022/02/17 02:15:04;;;;;;;3.57;1.47;;;;;21.40;98223.00;;;;2086471;28;20707;-47
2022/02/17 02:16:05;;;;;;;3.13;1.58;;;;;21.40;98230.00;;;;2086692;28;20240;-47
2022/02/17 02:17:05;;;;;;;3.30;1.50;;;;;21.30;98240.00;;;;2086711;28;20663;-47
2022/02/17 02:18:06;;;;;;;3.80;1.20;;;;;21.40;98217.00;;;;2086718;28;20545;-47
2022/02/17 02:19:06;;;;;;;4.67;1.43;;;;;21.40;98217.00;;;;2085944;28;20719;-47
2022/02/17 02:20:07;;;;;;;2.30;1.37;;;;;21.40;98216.00;;;;2086049;28;20219;-47
2022/02/17 02:21:08;;;;;;;2.80;1.40;;;;;21.30;98225.00;;;;2086293;28;20212;-47
2022/02/17 02:22:08;;;;;;;3.10;1.40;;;;;21.30;98265.00;;;;2087422;28;20254;-45
2022/02/17 02:23:08;;;;;;;3.77;1.40;;;;;21.30;98240.00;;;;2088296;28;20221;-48
2022/02/17 02:24:09;;;;;;;3.37;1.50;;;;;21.30;98243.00;;;;2087985;28;20240;-48
2022/02/17 02:25:10;;;;;;;5.20;1.50;;;;;21.40;98246.00;;;;2088257;28;20291;-48
2022/02/17 02:26:10;;;;;;;3.80;1.50;;;;;21.30;98248.00;;;;2087705;28;20228;-47
2022/02/17 02:27:14;;;;;;;4.17;2.00;;;;;21.30;98238.00;;;;2087647;28;20224;-46
2022/02/17 02:28:21;;;;;;;3.42;1.83;;;;;21.30;98249.00;;;;2087934;28;20286;-46
2022/02/17 02:29:21;;;;;;;3.85;1.60;;;;;21.30;98253.00;;;;2087530;28;20680;-47
2022/02/17 02:30:22;;;;;;;3.87;1.97;;;;;21.30;98262.00;;;;2086817;28;20216;-46
2022/02/17 02:31:22;;;;;;;4.60;1.57;;;;;21.30;98282.00;;;;2087095;28;20221;-47
2022/02/17 02:32:22;;;;;;;3.90;1.73;;;;;21.30;98251.00;;;;2088430;28;20215;-47
2022/02/17 02:33:23;;;;;;;3.13;1.63;;;;;21.30;98253.00;;;;2088305;28;20216;-48
2022/02/17 02:34:23;;;;;;;3.13;1.43;;;;;21.30;98268.00;;;;2088090;28;20223;-49
2022/02/17 02:35:24;;;;;;;3.67;1.80;;;;;21.30;98271.00;;;;2088102;28;20278;-47
2022/02/17 02:36:25;;;;;;;3.73;1.53;;;;;21.30;98262.00;;;;2080096;28;20299;-47
2022/02/17 02:37:26;;;;;;;3.65;1.75;;;;;21.30;98258.00;;;;2080039;28;20300;-47
2022/02/17 02:38:26;;;;;;;5.27;2.10;;;;;21.30;98297.00;;;;2080064;28;20701;-47
2022/02/17 02:39:26;;;;;;;4.07;1.83;;;;;21.30;98289.00;;;;2080183;28;20707;-48
2022/02/17 02:40:27;;;;;;;3.07;1.53;;;;;21.30;98290.00;;;;2079033;28;20217;-47
2022/02/17 02:41:27;;;;;;;2.90;1.50;;;;;21.30;98282.00;;;;2082816;28;20216;-48
2022/02/17 02:42:28;;;;;;;4.23;1.60;;;;;21.30;98293.00;;;;2087955;28;20694;-47
2022/02/17 02:43:28;;;;;;;3.70;1.80;;;;;21.30;98268.00;;;;2088082;28;20262;-47
2022/02/17 02:44:29;;;;;;;3.93;1.83;;;;;21.30;98266.00;;;;2076571;28;20205;-48
2022/02/17 02:45:29;;;;;;;2.80;1.67;;;;;21.30;98293.00;;;;2086959;28;20692;-48
2022/02/17 02:46:30;;;;;;;3.10;1.53;;;;;21.30;98279.00;;;;2086239;28;20235;-48
2022/02/17 02:47:30;;;;;;;4.33;1.70;;;;;21.30;98288.00;;;;2087523;28;20217;-48
2022/02/17 02:48:30;;;;;;;5.10;2.20;;;;;21.30;98300.00;;;;2084128;28;20213;-47
2022/02/17 02:49:31;;;;;;;4.40;1.63;;;;;21.30;98301.00;;;;2087200;28;20247;-48
2022/02/17 02:50:31;;;;;;;5.13;1.80;;;;;21.30;98320.00;;;;2086994;28;20255;-47
2022/02/17 02:51:32;;;;;;;6.10;1.93;;;;;21.30;98340.00;;;;2087035;28;20219;-49
2022/02/17 02:52:32;;;;;;;3.73;1.40;;;;;21.30;98327.00;;;;2087643;28;20213;-50
2022/02/17 02:53:33;;;;;;;6.27;2.00;;;;;21.30;98326.00;;;;2086153;28;20278;-49
2022/02/17 02:54:34;;;;;;;4.15;1.83;;;;;21.30;98344.00;;;;2086479;28;20788;-48
2022/02/17 02:55:34;;;;;;;5.03;2.07;;;;;21.20;98392.00;;;;2082263;28;20255;-48
2022/02/17 02:56:34;;;;;;;4.03;1.93;;;;;21.30;98365.00;;;;2081751;28;20588;-49
2022/02/17 02:57:35;;;;;;;3.33;1.40;;;;;21.20;98352.00;;;;2083275;28;20258;-46
2022/02/17 02:58:36;;;;;;;3.70;1.67;;;;;21.20;98359.00;;;;2081660;28;20266;-47
2022/02/17 02:59:41;;;;;;;4.78;2.00;;;;;21.20;98375.00;;;;2087789;28;20209;-49
2022/02/17 03:00:42;;;;;;;4.22;1.83;;;;;21.20;98366.00;;;;2087141;28;20760;-48
2022/02/17 03:01:43;;;;;;;4.85;1.85;;;;;21.30;98413.00;;;;2087488;28;20213;-48
2022/02/17 03:02:43;;;;;;;3.67;1.80;;;;;21.20;98368.00;;;;2087696;28;20212;-48
2022/02/17 03:03:48;;;;;;;3.57;1.70;;;;;21.20;98356.00;;;;2088018;28;20662;-47
2022/02/17 03:04:48;;;;;;;4.32;1.60;;;;;21.20;98391.00;;;;2087870;28;20685;-47
2022/02/17 03:05:49;;;;;;;6.10;1.70;;;;;21.20;98387.00;;;;2085960;28;20205;-48
2022/02/17 03:06:49;;;;;;;2.87;1.77;;;;;21.20;98369.00;;;;2087103;28;20200;-48
2022/02/17 03:07:52;;;;;;;3.43;1.70;;;;;21.20;98400.00;;;;2088067;28;20205;-48
2022/02/17 03:08:52;;;;;;;5.40;2.05;;;;;21.20;98383.00;;;;2083738;28;20693;-47
2022/02/17 03:09:52;;;;;;;6.83;1.97;;;;;21.20;98387.00;;;;2078803;28;20304;-47
2022/02/17 03:10:53;;;;;;;4.03;1.57;;;;;21.20;98402.00;;;;2078468;28;20205;-47
2022/02/17 03:11:53;;;;;;;3.97;1.77;;;;;21.20;98400.00;;;;2079512;28;20210;-47
2022/02/17 03:12:54;;;;;;;4.87;1.63;;;;;21.20;98400.00;;;;2086259;28;20205;-47
2022/02/17 03:13:55;;;;;;;4.00;1.80;;;;;21.20;98379.00;;;;2085316;28;20302;-47
2022/02/17 03:14:56;;;;;;;4.85;2.05;;;;;21.20;98424.00;;;;2087553;28;21029;-47
2022/02/17 03:15:56;;;;;;;4.63;1.73;;;;;21.20;98399.00;;;;2088050;28;20224;-48
2022/02/17 03:16:56;;;;;;;3.83;1.70;;;;;21.20;98420.00;;;;2087933;28;20292;-48
2022/02/17 03:17:57;;;;;;;4.23;1.73;;;;;21.20;98417.00;;;;2080442;28;21012;-47
2022/02/17 03:18:58;;;;;;;4.43;1.90;;;;;21.20;98422.00;;;;2079755;28;20713;-48
2022/02/17 03:19:58;;;;;;;3.00;1.70;;;;;21.20;98419.00;;;;2081058;28;20674;-47
2022/02/17 03:20:59;;;;;;;4.60;1.90;;;;;21.20;98422.00;;;;2086426;28;20213;-48
2022/02/17 03:21:59;;;;;;;4.97;1.57;;;;;21.20;98417.00;;;;2086982;28;20227;-48
2022/02/17 03:22:59;;;;;;;5.40;2.00;;;;;21.20;98427.00;;;;2087115;28;20999;-48
2022/02/17 03:24:00;;;;;;;4.53;1.97;;;;;21.20;98444.00;;;;2087253;28;20219;-47
2022/02/17 03:25:01;;;;;;;6.53;2.30;;;;;21.20;98449.00;;;;2085011;28;20728;-47
2022/02/17 03:26:01;;;;;;;5.47;1.97;;;;;21.20;98451.00;;;;2087795;28;20216;-48
2022/02/17 03:27:02;;;;;;;3.70;1.60;;;;;21.20;98424.00;;;;2087211;28;20244;-47
2022/02/17 03:28:02;;;;;;;4.90;1.70;;;;;21.20;98442.00;;;;2087065;28;20294;-47
2022/02/17 03:29:03;;;;;;;4.73;2.20;;;;;21.20;98427.00;;;;2087473;28;20269;-47
2022/02/17 03:30:05;;;;;;;5.07;2.33;;;;;21.10;98441.00;;;;2079674;28;20328;-48
2022/02/17 03:31:05;;;;;;;5.97;2.25;;;;;21.20;98430.00;;;;2076235;28;20332;-48
2022/02/17 03:32:06;;;;;;;6.17;2.20;;;;;21.20;98456.00;;;;2078246;28;20449;-48
2022/02/17 03:33:07;;;;;;;3.50;2.15;;;;;21.20;98433.00;;;;2083827;28;20275;-47
2022/02/17 03:34:08;;;;;;;5.15;2.15;;;;;21.20;98429.00;;;;2079918;28;20213;-47
2022/02/17 03:35:09;;;;;;;4.30;1.90;;;;;21.20;98449.00;;;;2078839;28;20286;-47
2022/02/17 03:36:09;;;;;;;6.20;1.97;;;;;21.20;98462.00;;;;2077917;28;20295;-47
2022/02/17 03:37:09;;;;;;;4.20;1.83;;;;;21.20;98455.00;;;;2078290;28;20327;-47
2022/02/17 03:38:10;;;;;;;4.47;1.83;;;;;21.10;98443.00;;;;2078891;28;20225;-48
2022/02/17 03:39:10;;;;;;;5.27;1.83;;;;;21.20;98454.00;;;;2077660;28;21323;-49
2022/02/17 03:40:11;;;;;;;4.77;2.20;;;;;21.10;98480.00;;;;2079122;28;20222;-53
2022/02/17 03:41:11;;;;;;;6.33;2.23;;;;;21.10;98451.00;;;;2078057;28;20729;-48
2022/02/17 03:42:12;;;;;;;5.50;1.90;;;;;21.10;98476.00;;;;2078797;28;20275;-48
2022/02/17 03:43:12;;;;;;;3.83;1.90;;;;;21.10;98478.00;;;;2081634;28;20213;-49
2022/02/17 03:44:13;;;;;;;4.00;2.17;;;;;21.10;98483.00;;;;2087667;28;20212;-48
2022/02/17 03:45:14;;;;;;;5.47;2.20;;;;;21.00;98484.00;;;;2084459;28;20753;-48
2022/02/17 03:46:14;;;;;;;5.77;2.30;;;;;21.10;98482.00;;;;2079667;28;20345;-48
2022/02/17 03:47:15;;;;;;;4.23;2.00;;;;;21.10;98480.00;;;;2078958;28;20236;-48
2022/02/17 03:48:15;;;;;;;5.00;2.17;;;;;21.10;98472.00;;;;2079612;28;20210;-48
2022/02/17 03:49:15;;;;;;;4.10;2.10;;;;;21.10;98488.00;;;;2079611;28;21019;-47
2022/02/17 03:50:16;;;;;;;6.20;2.33;;;;;21.10;98489.00;;;;2078959;28;20763;-47
2022/02/17 03:51:16;;;;;;;4.80;2.30;;;;;21.10;98534.00;;;;2079103;28;20253;-48
2022/02/17 03:52:16;;;;;;;5.40;1.83;;;;;21.10;98525.00;;;;2079271;28;20224;-48
2022/02/17 03:53:17;;;;;;;4.40;2.37;;;;;21.00;98498.00;;;;2079558;28;20225;-48
2022/02/17 03:54:18;;;;;;;5.90;2.20;;;;;21.00;98484.00;;;;2079321;28;20243;-48
2022/02/17 03:55:19;;;;;;;4.73;2.20;;;;;21.00;98602.00;;;;2078354;28;20292;-47
2022/02/17 03:56:19;;;;;;;6.37;2.43;;;;;21.00;98492.00;;;;2070640;28;20815;-48
2022/02/17 03:57:19;;;;;;;7.70;2.73;;;;;21.00;98498.00;;;;2078402;28;20226;-48
2022/02/17 03:59:20;;;;;;;4.40;2.10;;;;;20.90;98515.00;;;;2078276;28;20724;-48
2022/02/17 03:59:50;;;;;;;6.28;2.20;;;;;21.10;98504.00;;;;2061626;28;20213;-47
2022/02/17 04:00:50;;;;;;;5.80;2.33;;;;;21.10;98539.00;;;;2078553;28;20206;-48
2022/02/17 04:01:50;;;;;;;3.60;1.73;;;;;21.10;98515.00;;;;2078561;28;20233;-47
2022/02/17 04:02:52;;;;;;;4.07;2.10;;;;;21.10;98518.00;;;;2079456;28;20224;-48
2022/02/17 04:03:52;;;;;;;4.28;1.98;;;;;21.10;98514.00;;;;2079152;28;20592;-47
2022/02/17 04:04:53;;;;;;;6.67;2.93;;;;;21.10;98509.00;;;;2079171;28;20225;-47
2022/02/17 04:05:53;;;;;;;5.50;2.40;;;;;21.10;98528.00;;;;2079107;28;20214;-47
2022/02/17 04:06:53;;;;;;;6.23;2.20;;;;;21.10;98545.00;;;;2081835;28;20221;-47
2022/02/17 04:07:54;;;;;;;5.50;2.37;;;;;21.00;98559.00;;;;2086303;28;20223;-48
2022/02/17 04:08:55;;;;;;;5.85;2.25;;;;;21.10;98538.00;;;;2071691;28;20218;-48
2022/02/17 04:09:55;;;;;;;4.00;1.90;;;;;21.00;98525.00;;;;2078477;28;20213;-47
2022/02/17 04:10:56;;;;;;;5.00;2.07;;;;;21.00;98553.00;;;;2078289;28;21365;-48
2022/02/17 04:11:56;;;;;;;5.17;2.17;;;;;21.00;98550.00;;;;2079195;28;20308;-48
2022/02/17 04:12:56;;;;;;;5.60;2.40;;;;;21.00;98528.00;;;;2079220;28;20220;-48
2022/02/17 04:13:57;;;;;;;6.00;2.10;;;;;21.00;98541.00;;;;2079336;28;20225;-48
2022/02/17 04:14:57;;;;;;;4.47;2.00;;;;;21.00;98538.00;;;;2078830;28;20221;-48
2022/02/17 04:15:57;;;;;;;8.23;2.20;;;;;21.00;98530.00;;;;2079325;28;20265;-48
2022/02/17 04:16:58;;;;;;;6.47;2.43;;;;;21.00;98561.00;;;;2078356;28;20224;-48
2022/02/17 04:17:58;;;;;;;5.43;2.60;;;;;21.00;98542.00;;;;2079373;28;20213;-48
2022/02/17 04:18:58;;;;;;;7.83;2.20;;;;;21.00;98548.00;;;;2086886;28;20220;-48
2022/02/17 04:19:59;;;;;;;4.47;2.07;;;;;21.00;98541.00;;;;2086791;28;20282;-47
2022/02/17 04:20:59;;;;;;;5.97;2.37;;;;;21.00;98551.00;;;;2086165;28;20224;-47
2022/02/17 04:21:59;;;;;;;5.97;2.20;;;;;21.00;98552.00;;;;2087103;28;20224;-47
2022/02/17 04:23:00;;;;;;;6.73;2.40;;;;;21.00;98543.00;;;;2087503;28;21118;-48
2022/02/17 04:24:00;;;;;;;5.07;2.20;;;;;21.00;98557.00;;;;2087274;28;20924;-48
2022/02/17 04:25:00;;;;;;;6.23;2.27;;;;;21.00;98549.00;;;;2087074;28;20220;-47
2022/02/17 04:26:01;;;;;;;5.37;2.10;;;;;21.00;98564.00;;;;2075538;28;20287;-47
2022/02/17 04:27:02;;;;;;;5.63;2.07;;;;;21.00;98562.00;;;;2078005;28;20238;-48
2022/02/17 04:28:02;;;;;;;5.20;2.03;;;;;21.00;98531.00;;;;2078428;28;20221;-48
2022/02/17 04:29:02;;;;;;;6.67;2.30;;;;;21.00;98544.00;;;;2079082;28;20213;-47
2022/02/17 04:30:03;;;;;;;4.23;2.00;;;;;21.00;98569.00;;;;2078978;28;20259;-48
2022/02/17 04:31:04;;;;;;;6.17;2.10;;;;;21.00;98552.00;;;;2077936;28;20218;-48
2022/02/17 04:32:04;;;;;;;7.47;2.60;;;;;21.00;98552.00;;;;2078572;28;20256;-48
2022/02/17 04:33:05;;;;;;;6.90;2.37;;;;;21.00;98584.00;;;;2081488;28;20221;-48
2022/02/17 04:34:05;;;;;;;5.00;2.67;;;;;21.00;98584.00;;;;2087746;28;20221;-45
2022/02/17 04:35:06;;;;;;;6.13;2.20;;;;;21.00;98583.00;;;;2086678;28;20213;-46
2022/02/17 04:36:06;;;;;;;5.87;2.17;;;;;20.90;98613.00;;;;2082632;28;20279;-47
2022/02/17 04:37:07;;;;;;;5.53;1.90;;;;;20.90;98581.00;;;;2078851;28;20221;-47
2022/02/17 04:38:07;;;;;;;5.20;2.10;;;;;21.00;98591.00;;;;2086829;28;21008;-46
2022/02/17 04:39:08;;;;;;;7.23;2.47;;;;;20.90;98579.00;;;;2087398;28;20308;-47
2022/02/17 04:40:08;;;;;;;5.43;2.17;;;;;21.00;98585.00;;;;2086091;28;20221;-48
2022/02/17 04:42:28;;;;;;;6.25;2.40;;;;;20.90;98587.00;;;;2087162;28;20209;-47
2022/02/17 04:43:29;;;;;;;6.25;2.00;;;;;20.90;98619.00;;;;2087107;28;21029;-47
2022/02/17 04:44:29;;;;;;;5.00;2.10;;;;;20.90;98595.00;;;;2086013;28;20263;-48
2022/02/17 04:45:30;;;;;;;7.27;2.77;;;;;20.90;98606.00;;;;2083008;28;20952;-48
2022/02/17 04:46:30;;;;;;;6.23;2.60;;;;;20.90;98611.00;;;;2085849;28;20796;-47
2022/02/17 04:47:30;;;;;;;4.30;1.90;;;;;20.80;98604.00;;;;2086453;28;20236;-47
2022/02/17 04:48:31;;;;;;;5.57;2.33;;;;;20.90;98588.00;;;;2086705;28;20245;-49
2022/02/17 04:49:31;;;;;;;5.73;2.27;;;;;21.00;98582.00;;;;2086582;28;20216;-47
2022/02/17 04:50:32;;;;;;;6.23;2.93;;;;;20.90;98615.00;;;;2086348;28;20216;-47
2022/02/17 04:51:32;;;;;;;7.57;2.23;;;;;20.90;98612.00;;;;2085824;28;20240;-46
2022/02/17 04:52:33;;;;;;;6.53;2.60;;;;;20.90;98638.00;;;;2084790;28;20475;-47
2022/02/17 04:53:33;;;;;;;5.63;2.53;;;;;20.90;98615.00;;;;2078869;28;20209;-47
2022/02/17 04:54:33;;;;;;;7.83;2.47;;;;;20.90;98612.00;;;;2078769;28;20212;-47
2022/02/17 04:55:34;;;;;;;7.13;2.73;;;;;20.90;98641.00;;;;2078826;28;20202;-47
2022/02/17 04:56:34;;;;;;;5.53;2.83;;;;;20.90;98608.00;;;;2078317;28;20325;-48
2022/02/17 04:57:34;;;;;;;7.47;2.90;;;;;20.90;98636.00;;;;2078767;28;20201;-47
2022/02/17 04:58:35;;;;;;;5.03;2.30;;;;;20.90;98621.00;;;;2078694;28;20302;-47
2022/02/17 04:59:35;;;;;;;6.90;2.60;;;;;20.90;98683.00;;;;2078966;28;20206;-48
2022/02/17 05:00:36;;;;;;;7.30;3.07;;;;;20.90;98634.00;;;;2077177;28;20705;-47
2022/02/17 05:01:36;;;;;;;5.80;2.47;;;;;20.90;98624.00;;;;2078807;28;20218;-47
2022/02/17 05:02:36;;;;;;;5.83;2.20;;;;;20.90;98645.00;;;;2078677;28;20249;-47
2022/02/17 05:03:37;;;;;;;5.80;2.07;;;;;20.90;98642.00;;;;2079020;28;20275;-45
2022/02/17 05:04:37;;;;;;;6.27;2.90;;;;;20.90;98618.00;;;;2077127;28;20229;-47
2022/02/17 05:05:38;;;;;;;6.27;2.10;;;;;20.90;98640.00;;;;2086846;28;20228;-47